Terminal Aerodrome Forecast
Issued by NWS

Current Version | Previous Version | Text Only | Print | Product List | Glossary On
Versions: 1 2 3 4 5 6 7 8 9 10 11 12 13 14 15 16
000
FTUS42 KGSP 011747
TAFAND
TAF
KAND 011747Z 0118/0218 25010KT P6SM BKN050
     FM012100 25011KT P6SM VCTS BKN050CB
     FM020100 28006KT P6SM -SHRA VCTS OVC050CB
      TEMPO 0201/0203 3SM TSRA OVC040CB
     FM020300 27005KT P6SM -SHRA OVC060
     FM020500 25005KT P6SM OVC050
     FM021400 23007KT P6SM BKN017 OVC050 PROB30 0214/0218 4SM TSRA
      BKN017CB=

USA.gov is the U.S. government's official web portal to all federal, state and local government web resources and services.